Route Details

Aircraft Information
Group: North America Fleet
Types: B738, B752, B762, B763
Route Data
Distance: 1455nm
Duration: 3h 39m
Origin METAR: KPDX 160053Z 33006KT 10SM CLR 32/13 A2996 RMK AO2 SLP145 T03170128
Dest. METAR: KRFD 160054Z 05003KT 10SM SCT100 OVC250 22/17 A3009 RMK AO2 SLP188 T02220167 $
Freight Data
(for Aug 16, 2022)
Load Factor:
22%
Manifested Cargo: 20,875lbs
Financial History
Total Freight: 28,512lbs
Average Load: 0lbs/flt
Fuel Used: 33,510lbs
Avg. Fuel Used: 0lbs/flt
Fuel Expense: $29,154
Avg. Fuel Expense: $0
Avg. Fuel Cost: $0/lbs
Total Gross Income: $38,771
Pilot Pay: $328
Total Expenses: $4,291
Total Revenue: $4,047
Average Revenue: $0

Capitol Logistics 496




KPDX
Portland International Airport
Portland, Oregon
KRFD
Chicago/Rockford International Airport
Rockford, Illinois

Activity Log

Date Flight Route Aircraft Duration
03/24/2020 CPX455 LAVAA6 PDT DLN RAP J82 FSD J16 MCW DBQ B738 3h 39m
07/04/2019 CPX455 LAVAA6 PDT DLN RAP J82 FSD J16 MCW DBQ B738 3h 31m